createdAt,value
2018-03-21T00:05:22.000Z,24.41
2018-03-21T00:15:22.000Z,24.36
2018-03-21T00:25:23.000Z,24.32
2018-03-21T00:35:22.000Z,24.27
2018-03-21T00:45:22.000Z,24.14
2018-03-21T00:55:22.000Z,24.1
2018-03-21T01:05:22.000Z,24.03
2018-03-21T01:15:23.000Z,24.03
2018-03-21T01:25:22.000Z,23.93
2018-03-21T01:35:23.000Z,23.83
2018-03-21T01:45:23.000Z,23.77
2018-03-21T01:55:27.000Z,23.79
2018-03-21T02:15:23.000Z,23.53
2018-03-21T02:25:23.000Z,23.59
2018-03-21T02:35:24.000Z,23.59
2018-03-21T02:45:23.000Z,23.5
2018-03-21T02:55:23.000Z,23.44
2018-03-21T03:05:23.000Z,23.37
2018-03-21T03:15:23.000Z,23.34
2018-03-21T03:25:23.000Z,23.29
2018-03-21T03:35:23.000Z,23.22
2018-03-21T03:45:23.000Z,23.24
2018-03-21T03:55:23.000Z,23.21
2018-03-21T04:05:23.000Z,23.16
2018-03-21T04:15:23.000Z,23.12
2018-03-21T04:25:23.000Z,23.08
2018-03-21T04:35:23.000Z,23.08
2018-03-21T04:45:23.000Z,23.07
2018-03-21T04:55:23.000Z,22.97
2018-03-21T05:05:23.000Z,23.04
2018-03-21T05:15:23.000Z,23.02
2018-03-21T05:25:23.000Z,23.03
2018-03-21T05:35:23.000Z,22.99
2018-03-21T05:45:23.000Z,23.05
2018-03-21T05:55:24.000Z,23.07
2018-03-21T06:05:23.000Z,23.01
2018-03-21T06:15:23.000Z,23
2018-03-21T06:25:23.000Z,22.98
2018-03-21T06:35:23.000Z,23.02
2018-03-21T06:45:23.000Z,23.02
2018-03-21T06:55:23.000Z,23.01
2018-03-21T07:05:23.000Z,23.06
2018-03-21T07:15:23.000Z,23.12
2018-03-21T07:25:23.000Z,23.1
2018-03-21T07:35:24.000Z,23.13
2018-03-21T07:45:23.000Z,23.15
2018-03-21T07:55:23.000Z,23.17
2018-03-21T08:05:23.000Z,23.25
2018-03-21T08:15:23.000Z,23.34
2018-03-21T08:25:23.000Z,23.34
2018-03-21T08:35:23.000Z,23.38
2018-03-21T08:45:23.000Z,23.4
2018-03-21T08:55:23.000Z,23.55
2018-03-21T09:05:23.000Z,23.61
2018-03-21T09:15:23.000Z,23.63
2018-03-21T09:25:23.000Z,23.85
2018-03-21T09:35:23.000Z,23.88
2018-03-21T09:45:23.000Z,23.94
2018-03-21T09:55:24.000Z,24.5
2018-03-21T10:05:24.000Z,24.56
2018-03-21T10:15:24.000Z,24.53
2018-03-21T10:25:24.000Z,24.5
2018-03-21T10:35:24.000Z,24.76
2018-03-21T10:45:24.000Z,24.92
2018-03-21T10:55:24.000Z,24.86
2018-03-21T11:05:24.000Z,24.82
2018-03-21T11:15:24.000Z,24.79
2018-03-21T11:25:24.000Z,25.11
2018-03-21T11:35:24.000Z,25.36
2018-03-21T11:45:24.000Z,25.29
2018-03-21T11:55:24.000Z,25.59
2018-03-21T12:05:24.000Z,25.38
2018-03-21T12:15:24.000Z,25.54
2018-03-21T12:25:24.000Z,25.55
2018-03-21T12:35:24.000Z,25.53
2018-03-21T12:45:24.000Z,25.72
2018-03-21T12:55:24.000Z,25.76
2018-03-21T13:05:24.000Z,26.03
2018-03-21T13:15:24.000Z,26.03
2018-03-21T13:25:24.000Z,25.99
2018-03-21T13:35:24.000Z,25.95
2018-03-21T13:45:24.000Z,26.13
2018-03-21T13:55:25.000Z,26.61
2018-03-21T14:05:24.000Z,26.49
2018-03-21T14:15:24.000Z,26.63
2018-03-21T14:25:24.000Z,26.62
2018-03-21T14:35:24.000Z,26.39
2018-03-21T14:45:24.000Z,26.71
2018-03-21T14:55:24.000Z,26.9
2018-03-21T15:05:24.000Z,26.7
2018-03-21T15:15:24.000Z,26.85
2018-03-21T15:25:24.000Z,26.17
2018-03-21T15:35:24.000Z,26.84
2018-03-21T15:45:24.000Z,26.5
2018-03-21T15:55:24.000Z,26.62
2018-03-21T16:05:24.000Z,26.53
2018-03-21T16:15:24.000Z,26.42
2018-03-21T16:25:24.000Z,26.45
2018-03-21T16:35:24.000Z,26.54
2018-03-21T16:45:24.000Z,26.36
2018-03-21T16:55:24.000Z,26.2
2018-03-21T17:05:24.000Z,25.99
2018-03-21T17:15:24.000Z,25.88
2018-03-21T17:25:24.000Z,26.09
2018-03-21T17:35:24.000Z,25.7
2018-03-21T17:45:24.000Z,26.24
2018-03-21T17:55:24.000Z,25.89
2018-03-21T18:05:24.000Z,26.08
2018-03-21T18:15:25.000Z,26.21
2018-03-21T18:25:25.000Z,25.46
2018-03-21T18:35:25.000Z,25.47
2018-03-21T18:45:26.000Z,25.44
2018-03-21T18:55:25.000Z,25.75
2018-03-21T19:05:25.000Z,25.7
2018-03-21T19:15:25.000Z,25.66
2018-03-21T19:25:25.000Z,25.71
2018-03-21T19:35:25.000Z,25.53
2018-03-21T19:45:25.000Z,25.55
2018-03-21T19:55:25.000Z,25.78
2018-03-21T20:05:25.000Z,25.6
2018-03-21T20:15:25.000Z,25.87
2018-03-21T20:25:25.000Z,25.64
2018-03-21T20:35:25.000Z,25.55
2018-03-21T20:45:25.000Z,25.85
2018-03-21T20:55:27.000Z,25.62
2018-03-21T21:05:26.000Z,25.53
2018-03-21T21:15:25.000Z,25.59
2018-03-21T21:25:25.000Z,25.65
2018-03-21T21:35:25.000Z,25.63
2018-03-21T21:45:25.000Z,25.61
2018-03-21T21:55:25.000Z,25.75
2018-03-21T22:05:25.000Z,25.65
2018-03-21T22:15:25.000Z,25.57
2018-03-21T22:25:25.000Z,25.72
2018-03-21T22:35:25.000Z,25.63
2018-03-21T22:45:25.000Z,25.57
2018-03-21T22:55:25.000Z,25.54
2018-03-21T23:05:25.000Z,25.46
2018-03-21T23:15:25.000Z,25.43
2018-03-21T23:25:26.000Z,25.34
2018-03-21T23:35:27.000Z,25.28
2018-03-21T23:45:25.000Z,25.22
2018-03-21T23:55:25.000Z,25.15
